sensor_id;sensor_type;location;lat;lon;timestamp;P1;durP1;ratioP1;P2;durP2;ratioP2
37937;SDS011;23763;48.130;11.602;2022-11-27T00:00:41;8.33;;;7.53;;
37937;SDS011;23763;48.130;11.602;2022-11-27T00:03:07;15.27;;;10.80;;
37937;SDS011;23763;48.130;11.602;2022-11-27T00:05:32;10.80;;;9.90;;
37937;SDS011;23763;48.130;11.602;2022-11-27T00:07:58;9.73;;;8.90;;
37937;SDS011;23763;48.130;11.602;2022-11-27T00:10:24;10.50;;;9.50;;
37937;SDS011;23763;48.130;11.602;2022-11-27T00:12:49;12.60;;;10.77;;
37937;SDS011;23763;48.130;11.602;2022-11-27T00:15:15;10.63;;;9.73;;
37937;SDS011;23763;48.130;11.602;2022-11-27T00:17:41;10.67;;;9.53;;
37937;SDS011;23763;48.130;11.602;2022-11-27T00:20:06;9.17;;;8.27;;
37937;SDS011;23763;48.130;11.602;2022-11-27T00:22:32;9.10;;;8.27;;
37937;SDS011;23763;48.130;11.602;2022-11-27T00:24:58;8.53;;;7.83;;
37937;SDS011;23763;48.130;11.602;2022-11-27T00:27:24;8.53;;;7.93;;
37937;SDS011;23763;48.130;11.602;2022-11-27T00:29:50;8.10;;;7.47;;
37937;SDS011;23763;48.130;11.602;2022-11-27T00:32:15;8.80;;;8.10;;
37937;SDS011;23763;48.130;11.602;2022-11-27T00:34:41;9.50;;;8.80;;
37937;SDS011;23763;48.130;11.602;2022-11-27T00:37:06;9.27;;;8.47;;
37937;SDS011;23763;48.130;11.602;2022-11-27T00:39:32;9.37;;;8.50;;
37937;SDS011;23763;48.130;11.602;2022-11-27T00:41:58;8.67;;;7.97;;
37937;SDS011;23763;48.130;11.602;2022-11-27T00:44:23;9.10;;;8.40;;
37937;SDS011;23763;48.130;11.602;2022-11-27T00:46:49;7.93;;;7.37;;
37937;SDS011;23763;48.130;11.602;2022-11-27T00:49:15;8.67;;;7.87;;
37937;SDS011;23763;48.130;11.602;2022-11-27T00:51:41;9.00;;;8.10;;
37937;SDS011;23763;48.130;11.602;2022-11-27T00:54:07;8.20;;;7.43;;
37937;SDS011;23763;48.130;11.602;2022-11-27T00:56:33;8.60;;;7.80;;
37937;SDS011;23763;48.130;11.602;2022-11-27T00:59:01;9.30;;;8.40;;
37937;SDS011;23763;48.130;11.602;2022-11-27T01:01:29;9.23;;;8.33;;
37937;SDS011;23763;48.130;11.602;2022-11-27T01:03:56;9.13;;;8.33;;
37937;SDS011;23763;48.130;11.602;2022-11-27T01:06:23;9.30;;;8.50;;
37937;SDS011;23763;48.130;11.602;2022-11-27T01:08:49;9.47;;;8.50;;
37937;SDS011;23763;48.130;11.602;2022-11-27T01:11:17;9.57;;;8.67;;
37937;SDS011;23763;48.130;11.602;2022-11-27T01:13:45;9.00;;;8.30;;
37937;SDS011;23763;48.130;11.602;2022-11-27T01:16:12;8.77;;;8.07;;
37937;SDS011;23763;48.130;11.602;2022-11-27T01:18:41;9.00;;;8.20;;
37937;SDS011;23763;48.130;11.602;2022-11-27T01:21:08;8.57;;;7.87;;
37937;SDS011;23763;48.130;11.602;2022-11-27T01:23:35;7.03;;;6.60;;
37937;SDS011;23763;48.130;11.602;2022-11-27T01:26:02;7.10;;;6.50;;
37937;SDS011;23763;48.130;11.602;2022-11-27T01:28:29;7.97;;;7.20;;
37937;SDS011;23763;48.130;11.602;2022-11-27T01:30:55;7.97;;;7.43;;
37937;SDS011;23763;48.130;11.602;2022-11-27T01:33:20;8.97;;;8.07;;
37937;SDS011;23763;48.130;11.602;2022-11-27T01:35:54;9.43;;;8.53;;
37937;SDS011;23763;48.130;11.602;2022-11-27T01:38:22;8.87;;;8.00;;
37937;SDS011;23763;48.130;11.602;2022-11-27T01:40:48;8.20;;;7.40;;
37937;SDS011;23763;48.130;11.602;2022-11-27T01:51:38;8.50;;;7.70;;
37937;SDS011;23763;48.130;11.602;2022-11-27T01:54:04;8.50;;;7.80;;
37937;SDS011;23763;48.130;11.602;2022-11-27T01:56:31;7.90;;;7.23;;
37937;SDS011;23763;48.130;11.602;2022-11-27T01:58:57;8.67;;;7.87;;
37937;SDS011;23763;48.130;11.602;2022-11-27T02:01:23;8.30;;;7.60;;
37937;SDS011;23763;48.130;11.602;2022-11-27T02:03:50;7.80;;;7.23;;
37937;SDS011;23763;48.130;11.602;2022-11-27T02:06:17;12.70;;;9.10;;
37937;SDS011;23763;48.130;11.602;2022-11-27T02:08:43;9.77;;;8.77;;
37937;SDS011;23763;48.130;11.602;2022-11-27T02:13:51;9.97;;;8.97;;
37937;SDS011;23763;48.130;11.602;2022-11-27T02:19:32;24.37;;;16.23;;
37937;SDS011;23763;48.130;11.602;2022-11-27T02:22:28;8.73;;;7.93;;
37937;SDS011;23763;48.130;11.602;2022-11-27T02:30:50;17.87;;;12.07;;
37937;SDS011;23763;48.130;11.602;2022-11-27T02:33:21;15.93;;;12.47;;
37937;SDS011;23763;48.130;11.602;2022-11-27T02:35:49;11.77;;;10.57;;
37937;SDS011;23763;48.130;11.602;2022-11-27T02:38:22;17.63;;;12.60;;
37937;SDS011;23763;48.130;11.602;2022-11-27T02:40:58;11.43;;;10.17;;
37937;SDS011;23763;48.130;11.602;2022-11-27T02:43:35;10.13;;;9.13;;
37937;SDS011;23763;48.130;11.602;2022-11-27T02:46:04;15.57;;;11.27;;
37937;SDS011;23763;48.130;11.602;2022-11-27T02:48:33;10.50;;;9.47;;
37937;SDS011;23763;48.130;11.602;2022-11-27T02:51:08;15.63;;;11.47;;
37937;SDS011;23763;48.130;11.602;2022-11-27T02:53:42;21.80;;;13.40;;
37937;SDS011;23763;48.130;11.602;2022-11-27T02:56:13;23.53;;;15.60;;
37937;SDS011;23763;48.130;11.602;2022-11-27T02:58:44;26.70;;;16.23;;
37937;SDS011;23763;48.130;11.602;2022-11-27T03:01:11;15.43;;;12.77;;
37937;SDS011;23763;48.130;11.602;2022-11-27T03:03:40;14.23;;;11.70;;
37937;SDS011;23763;48.130;11.602;2022-11-27T03:06:10;23.90;;;15.17;;
37937;SDS011;23763;48.130;11.602;2022-11-27T03:11:26;10.53;;;9.53;;
37937;SDS011;23763;48.130;11.602;2022-11-27T03:13:54;25.67;;;16.70;;
37937;SDS011;23763;48.130;11.602;2022-11-27T03:19:47;14.90;;;13.20;;
37937;SDS011;23763;48.130;11.602;2022-11-27T03:22:23;38.17;;;23.30;;
37937;SDS011;23763;48.130;11.602;2022-11-27T03:24:50;12.03;;;10.97;;
37937;SDS011;23763;48.130;11.602;2022-11-27T03:27:18;18.93;;;13.40;;
37937;SDS011;23763;48.130;11.602;2022-11-27T03:29:52;29.90;;;17.30;;
37937;SDS011;23763;48.130;11.602;2022-11-27T03:32:20;11.93;;;10.90;;
37937;SDS011;23763;48.130;11.602;2022-11-27T03:34:47;15.50;;;11.50;;
37937;SDS011;23763;48.130;11.602;2022-11-27T03:37:13;12.37;;;11.07;;
37937;SDS011;23763;48.130;11.602;2022-11-27T03:39:39;10.10;;;9.10;;
37937;SDS011;23763;48.130;11.602;2022-11-27T03:50:54;22.00;;;18.20;;
37937;SDS011;23763;48.130;11.602;2022-11-27T03:59:27;8.63;;;7.60;;
37937;SDS011;23763;48.130;11.602;2022-11-27T04:01:56;9.63;;;8.87;;
37937;SDS011;23763;48.130;11.602;2022-11-27T04:04:22;13.23;;;11.83;;
37937;SDS011;23763;48.130;11.602;2022-11-27T04:06:48;9.63;;;8.73;;
37937;SDS011;23763;48.130;11.602;2022-11-27T04:09:14;8.17;;;7.57;;
37937;SDS011;23763;48.130;11.602;2022-11-27T04:11:39;14.93;;;11.27;;
37937;SDS011;23763;48.130;11.602;2022-11-27T04:14:05;17.37;;;13.90;;
37937;SDS011;23763;48.130;11.602;2022-11-27T04:16:31;9.73;;;8.97;;
37937;SDS011;23763;48.130;11.602;2022-11-27T04:18:56;11.30;;;10.30;;
37937;SDS011;23763;48.130;11.602;2022-11-27T04:21:22;10.53;;;9.73;;
37937;SDS011;23763;48.130;11.602;2022-11-27T04:23:48;9.53;;;8.83;;
37937;SDS011;23763;48.130;11.602;2022-11-27T04:26:13;14.30;;;12.90;;
37937;SDS011;23763;48.130;11.602;2022-11-27T04:28:40;9.40;;;8.60;;
37937;SDS011;23763;48.130;11.602;2022-11-27T04:31:05;8.90;;;8.00;;
37937;SDS011;23763;48.130;11.602;2022-11-27T04:33:31;8.33;;;7.73;;
37937;SDS011;23763;48.130;11.602;2022-11-27T04:35:57;8.17;;;7.50;;
37937;SDS011;23763;48.130;11.602;2022-11-27T04:38:23;8.73;;;7.87;;
37937;SDS011;23763;48.130;11.602;2022-11-27T04:40:50;8.33;;;7.73;;
37937;SDS011;23763;48.130;11.602;2022-11-27T04:43:17;7.97;;;7.47;;
37937;SDS011;23763;48.130;11.602;2022-11-27T04:45:43;8.00;;;7.50;;
37937;SDS011;23763;48.130;11.602;2022-11-27T04:48:08;8.50;;;7.80;;
37937;SDS011;23763;48.130;11.602;2022-11-27T04:50:34;8.03;;;7.33;;
37937;SDS011;23763;48.130;11.602;2022-11-27T04:53:00;7.70;;;7.10;;
37937;SDS011;23763;48.130;11.602;2022-11-27T04:55:25;7.80;;;7.13;;
37937;SDS011;23763;48.130;11.602;2022-11-27T04:57:51;8.23;;;7.53;;
37937;SDS011;23763;48.130;11.602;2022-11-27T05:00:17;7.87;;;7.27;;
37937;SDS011;23763;48.130;11.602;2022-11-27T05:02:43;7.77;;;7.20;;
37937;SDS011;23763;48.130;11.602;2022-11-27T05:05:08;7.93;;;7.17;;
37937;SDS011;23763;48.130;11.602;2022-11-27T05:07:34;7.83;;;7.23;;
37937;SDS011;23763;48.130;11.602;2022-11-27T05:10:00;7.57;;;7.07;;
37937;SDS011;23763;48.130;11.602;2022-11-27T05:12:26;8.13;;;7.43;;
37937;SDS011;23763;48.130;11.602;2022-11-27T05:14:51;7.67;;;7.07;;
37937;SDS011;23763;48.130;11.602;2022-11-27T05:17:17;8.93;;;7.60;;
37937;SDS011;23763;48.130;11.602;2022-11-27T05:19:42;7.60;;;7.10;;
37937;SDS011;23763;48.130;11.602;2022-11-27T05:22:08;8.10;;;7.40;;
37937;SDS011;23763;48.130;11.602;2022-11-27T05:24:34;7.93;;;7.33;;
37937;SDS011;23763;48.130;11.602;2022-11-27T05:26:59;7.80;;;7.20;;
37937;SDS011;23763;48.130;11.602;2022-11-27T05:29:25;8.00;;;7.40;;
37937;SDS011;23763;48.130;11.602;2022-11-27T05:31:51;8.37;;;7.43;;
37937;SDS011;23763;48.130;11.602;2022-11-27T05:34:17;8.10;;;7.40;;
37937;SDS011;23763;48.130;11.602;2022-11-27T05:36:43;7.67;;;7.07;;
37937;SDS011;23763;48.130;11.602;2022-11-27T05:39:09;8.20;;;7.50;;
37937;SDS011;23763;48.130;11.602;2022-11-27T05:41:36;7.63;;;7.03;;
37937;SDS011;23763;48.130;11.602;2022-11-27T05:44:03;7.20;;;6.80;;
37937;SDS011;23763;48.130;11.602;2022-11-27T05:46:29;7.87;;;7.37;;
37937;SDS011;23763;48.130;11.602;2022-11-27T05:48:55;7.80;;;7.10;;
37937;SDS011;23763;48.130;11.602;2022-11-27T05:51:21;7.43;;;6.90;;
37937;SDS011;23763;48.130;11.602;2022-11-27T05:53:48;8.43;;;7.37;;
37937;SDS011;23763;48.130;11.602;2022-11-27T05:56:14;7.57;;;6.97;;
37937;SDS011;23763;48.130;11.602;2022-11-27T05:58:42;7.80;;;7.30;;
37937;SDS011;23763;48.130;11.602;2022-11-27T06:01:10;7.30;;;6.80;;
37937;SDS011;23763;48.130;11.602;2022-11-27T06:03:37;7.43;;;6.83;;
37937;SDS011;23763;48.130;11.602;2022-11-27T06:06:06;7.60;;;7.00;;
37937;SDS011;23763;48.130;11.602;2022-11-27T06:08:37;7.43;;;6.83;;
37937;SDS011;23763;48.130;11.602;2022-11-27T06:11:08;7.23;;;6.83;;
37937;SDS011;23763;48.130;11.602;2022-11-27T06:13:35;6.93;;;6.53;;
37937;SDS011;23763;48.130;11.602;2022-11-27T06:16:05;6.83;;;6.40;;
37937;SDS011;23763;48.130;11.602;2022-11-27T06:18:35;7.27;;;6.70;;
37937;SDS011;23763;48.130;11.602;2022-11-27T06:21:04;6.80;;;6.30;;
37937;SDS011;23763;48.130;11.602;2022-11-27T06:23:34;6.53;;;6.03;;
37937;SDS011;23763;48.130;11.602;2022-11-27T06:26:17;7.53;;;6.97;;
37937;SDS011;23763;48.130;11.602;2022-11-27T06:28:44;6.67;;;6.17;;
37937;SDS011;23763;48.130;11.602;2022-11-27T06:31:13;6.90;;;6.50;;
37937;SDS011;23763;48.130;11.602;2022-11-27T06:33:40;6.53;;;6.13;;
37937;SDS011;23763;48.130;11.602;2022-11-27T06:36:06;6.73;;;6.33;;
37937;SDS011;23763;48.130;11.602;2022-11-27T06:38:33;6.50;;;6.10;;
37937;SDS011;23763;48.130;11.602;2022-11-27T06:41:00;6.73;;;6.13;;
37937;SDS011;23763;48.130;11.602;2022-11-27T06:43:31;7.13;;;6.53;;
37937;SDS011;23763;48.130;11.602;2022-11-27T06:45:57;6.80;;;6.40;;
37937;SDS011;23763;48.130;11.602;2022-11-27T06:48:25;7.13;;;6.63;;
37937;SDS011;23763;48.130;11.602;2022-11-27T06:50:51;7.00;;;6.30;;
37937;SDS011;23763;48.130;11.602;2022-11-27T06:53:16;7.13;;;6.53;;
37937;SDS011;23763;48.130;11.602;2022-11-27T06:55:43;6.90;;;6.50;;
37937;SDS011;23763;48.130;11.602;2022-11-27T06:58:09;6.73;;;6.23;;
37937;SDS011;23763;48.130;11.602;2022-11-27T07:00:35;7.37;;;6.87;;
37937;SDS011;23763;48.130;11.602;2022-11-27T07:03:00;6.93;;;6.43;;
37937;SDS011;23763;48.130;11.602;2022-11-27T07:05:26;7.10;;;6.60;;
37937;SDS011;23763;48.130;11.602;2022-11-27T07:07:53;7.27;;;6.77;;
37937;SDS011;23763;48.130;11.602;2022-11-27T07:10:20;6.67;;;6.37;;
37937;SDS011;23763;48.130;11.602;2022-11-27T07:12:46;6.93;;;6.43;;
37937;SDS011;23763;48.130;11.602;2022-11-27T07:15:11;7.17;;;6.67;;
37937;SDS011;23763;48.130;11.602;2022-11-27T07:17:37;7.67;;;7.03;;
37937;SDS011;23763;48.130;11.602;2022-11-27T07:20:03;7.97;;;7.37;;
37937;SDS011;23763;48.130;11.602;2022-11-27T07:22:31;8.30;;;7.60;;
37937;SDS011;23763;48.130;11.602;2022-11-27T07:24:56;7.97;;;7.37;;
37937;SDS011;23763;48.130;11.602;2022-11-27T07:27:22;8.30;;;7.60;;
37937;SDS011;23763;48.130;11.602;2022-11-27T07:29:48;8.50;;;7.87;;
37937;SDS011;23763;48.130;11.602;2022-11-27T07:32:14;8.40;;;7.53;;
37937;SDS011;23763;48.130;11.602;2022-11-27T07:34:39;8.20;;;7.50;;
37937;SDS011;23763;48.130;11.602;2022-11-27T07:37:05;7.93;;;7.13;;
37937;SDS011;23763;48.130;11.602;2022-11-27T07:39:31;7.80;;;7.20;;
37937;SDS011;23763;48.130;11.602;2022-11-27T07:41:56;36.37;;;16.73;;
37937;SDS011;23763;48.130;11.602;2022-11-27T07:44:22;10.03;;;9.13;;
37937;SDS011;23763;48.130;11.602;2022-11-27T07:46:47;45.87;;;26.50;;
37937;SDS011;23763;48.130;11.602;2022-11-27T07:49:13;16.67;;;14.80;;
37937;SDS011;23763;48.130;11.602;2022-11-27T07:51:39;12.00;;;10.73;;
37937;SDS011;23763;48.130;11.602;2022-11-27T07:54:05;9.90;;;9.10;;
37937;SDS011;23763;48.130;11.602;2022-11-27T07:56:31;14.70;;;13.20;;
37937;SDS011;23763;48.130;11.602;2022-11-27T07:58:57;10.70;;;9.80;;
37937;SDS011;23763;48.130;11.602;2022-11-27T08:01:22;10.17;;;9.37;;
37937;SDS011;23763;48.130;11.602;2022-11-27T08:03:48;11.47;;;10.37;;
37937;SDS011;23763;48.130;11.602;2022-11-27T08:06:21;15.50;;;13.90;;
37937;SDS011;23763;48.130;11.602;2022-11-27T08:08:49;12.00;;;10.87;;
37937;SDS011;23763;48.130;11.602;2022-11-27T08:11:16;21.77;;;17.60;;
37937;SDS011;23763;48.130;11.602;2022-11-27T08:13:57;24.33;;;19.47;;
37937;SDS011;23763;48.130;11.602;2022-11-27T08:16:25;12.50;;;11.37;;
37937;SDS011;23763;48.130;11.602;2022-11-27T08:18:52;14.97;;;13.13;;
37937;SDS011;23763;48.130;11.602;2022-11-27T08:21:18;13.17;;;11.83;;
37937;SDS011;23763;48.130;11.602;2022-11-27T08:23:44;22.57;;;17.70;;
37937;SDS011;23763;48.130;11.602;2022-11-27T08:26:10;37.47;;;24.77;;
37937;SDS011;23763;48.130;11.602;2022-11-27T08:28:36;11.77;;;10.57;;
37937;SDS011;23763;48.130;11.602;2022-11-27T08:31:03;13.23;;;12.03;;
37937;SDS011;23763;48.130;11.602;2022-11-27T08:33:29;16.20;;;13.07;;
37937;SDS011;23763;48.130;11.602;2022-11-27T08:35:56;23.33;;;17.97;;
37937;SDS011;23763;48.130;11.602;2022-11-27T08:38:22;12.23;;;11.00;;
37937;SDS011;23763;48.130;11.602;2022-11-27T08:40:55;10.13;;;9.33;;
37937;SDS011;23763;48.130;11.602;2022-11-27T08:43:22;9.07;;;8.27;;
37937;SDS011;23763;48.130;11.602;2022-11-27T08:45:48;9.00;;;8.20;;
37937;SDS011;23763;48.130;11.602;2022-11-27T08:48:14;9.57;;;8.77;;
37937;SDS011;23763;48.130;11.602;2022-11-27T08:50:40;10.47;;;9.50;;
37937;SDS011;23763;48.130;11.602;2022-11-27T08:53:06;8.40;;;7.77;;
37937;SDS011;23763;48.130;11.602;2022-11-27T08:55:31;10.33;;;9.33;;
37937;SDS011;23763;48.130;11.602;2022-11-27T08:57:57;18.80;;;14.07;;
37937;SDS011;23763;48.130;11.602;2022-11-27T09:00:23;29.87;;;21.00;;
37937;SDS011;23763;48.130;11.602;2022-11-27T09:02:48;10.23;;;9.33;;
37937;SDS011;23763;48.130;11.602;2022-11-27T09:05:14;12.50;;;11.23;;
37937;SDS011;23763;48.130;11.602;2022-11-27T09:07:39;9.27;;;8.63;;
37937;SDS011;23763;48.130;11.602;2022-11-27T09:10:06;12.43;;;11.20;;
37937;SDS011;23763;48.130;11.602;2022-11-27T09:12:32;9.77;;;8.87;;
37937;SDS011;23763;48.130;11.602;2022-11-27T09:14:57;8.87;;;8.17;;
37937;SDS011;23763;48.130;11.602;2022-11-27T09:17:23;9.60;;;8.90;;
37937;SDS011;23763;48.130;11.602;2022-11-27T09:19:49;12.30;;;10.90;;
37937;SDS011;23763;48.130;11.602;2022-11-27T09:22:14;9.77;;;8.87;;
37937;SDS011;23763;48.130;11.602;2022-11-27T09:24:40;9.13;;;8.33;;
37937;SDS011;23763;48.130;11.602;2022-11-27T09:27:06;9.00;;;8.30;;
37937;SDS011;23763;48.130;11.602;2022-11-27T09:29:35;9.33;;;8.53;;
37937;SDS011;23763;48.130;11.602;2022-11-27T09:32:00;8.73;;;8.03;;
37937;SDS011;23763;48.130;11.602;2022-11-27T09:34:26;8.40;;;7.67;;
37937;SDS011;23763;48.130;11.602;2022-11-27T09:36:52;14.67;;;11.07;;
37937;SDS011;23763;48.130;11.602;2022-11-27T09:39:17;10.23;;;9.40;;
37937;SDS011;23763;48.130;11.602;2022-11-27T09:49:55;9.53;;;8.63;;
37937;SDS011;23763;48.130;11.602;2022-11-27T09:58:04;8.30;;;7.60;;
37937;SDS011;23763;48.130;11.602;2022-11-27T10:00:35;8.00;;;7.40;;
37937;SDS011;23763;48.130;11.602;2022-11-27T10:03:01;8.90;;;8.30;;
37937;SDS011;23763;48.130;11.602;2022-11-27T10:10:45;8.70;;;8.00;;
37937;SDS011;23763;48.130;11.602;2022-11-27T10:16:42;8.33;;;7.63;;
37937;SDS011;23763;48.130;11.602;2022-11-27T10:22:36;8.27;;;7.57;;
37937;SDS011;23763;48.130;11.602;2022-11-27T10:30:57;7.90;;;7.30;;
37937;SDS011;23763;48.130;11.602;2022-11-27T10:33:36;7.97;;;7.40;;
37937;SDS011;23763;48.130;11.602;2022-11-27T10:36:26;7.50;;;7.00;;
37937;SDS011;23763;48.130;11.602;2022-11-27T10:39:04;8.40;;;7.60;;
37937;SDS011;23763;48.130;11.602;2022-11-27T10:41:50;9.30;;;8.20;;
37937;SDS011;23763;48.130;11.602;2022-11-27T10:46:51;7.37;;;6.87;;
37937;SDS011;23763;48.130;11.602;2022-11-27T10:49:21;8.03;;;7.33;;
37937;SDS011;23763;48.130;11.602;2022-11-27T10:51:46;8.60;;;8.00;;
37937;SDS011;23763;48.130;11.602;2022-11-27T10:54:16;8.90;;;8.10;;
37937;SDS011;23763;48.130;11.602;2022-11-27T10:59:49;7.63;;;6.93;;
37937;SDS011;23763;48.130;11.602;2022-11-27T11:02:24;8.00;;;7.30;;
37937;SDS011;23763;48.130;11.602;2022-11-27T11:05:08;8.37;;;7.57;;
37937;SDS011;23763;48.130;11.602;2022-11-27T11:07:35;8.27;;;7.60;;
37937;SDS011;23763;48.130;11.602;2022-11-27T11:10:01;8.50;;;7.90;;
37937;SDS011;23763;48.130;11.602;2022-11-27T11:12:27;7.53;;;6.93;;
37937;SDS011;23763;48.130;11.602;2022-11-27T11:14:54;8.00;;;7.27;;
37937;SDS011;23763;48.130;11.602;2022-11-27T11:17:23;7.70;;;7.20;;
37937;SDS011;23763;48.130;11.602;2022-11-27T11:19:50;8.60;;;7.90;;
37937;SDS011;23763;48.130;11.602;2022-11-27T11:22:16;7.60;;;7.10;;
37937;SDS011;23763;48.130;11.602;2022-11-27T11:24:46;7.50;;;7.00;;
37937;SDS011;23763;48.130;11.602;2022-11-27T11:27:15;7.83;;;7.20;;
37937;SDS011;23763;48.130;11.602;2022-11-27T11:30:06;8.07;;;7.47;;
37937;SDS011;23763;48.130;11.602;2022-11-27T11:32:43;8.10;;;7.37;;
37937;SDS011;23763;48.130;11.602;2022-11-27T11:37:56;8.10;;;7.50;;
37937;SDS011;23763;48.130;11.602;2022-11-27T11:40:26;8.17;;;7.57;;
37937;SDS011;23763;48.130;11.602;2022-11-27T11:42:57;8.07;;;7.47;;
37937;SDS011;23763;48.130;11.602;2022-11-27T11:45:26;8.47;;;7.80;;
37937;SDS011;23763;48.130;11.602;2022-11-27T11:47:57;8.43;;;7.80;;
37937;SDS011;23763;48.130;11.602;2022-11-27T11:50:31;11.43;;;10.37;;
37937;SDS011;23763;48.130;11.602;2022-11-27T11:56:00;8.30;;;7.70;;
37937;SDS011;23763;48.130;11.602;2022-11-27T11:58:57;8.53;;;7.83;;
37937;SDS011;23763;48.130;11.602;2022-11-27T12:01:42;8.70;;;8.00;;
37937;SDS011;23763;48.130;11.602;2022-11-27T12:12:23;13.97;;;12.77;;
37937;SDS011;23763;48.130;11.602;2022-11-27T12:15:19;10.80;;;9.70;;
37937;SDS011;23763;48.130;11.602;2022-11-27T12:23:23;9.20;;;8.40;;
37937;SDS011;23763;48.130;11.602;2022-11-27T12:26:02;9.73;;;8.90;;
37937;SDS011;23763;48.130;11.602;2022-11-27T12:38:44;9.90;;;8.97;;
37937;SDS011;23763;48.130;11.602;2022-11-27T12:41:36;9.73;;;8.83;;
37937;SDS011;23763;48.130;11.602;2022-11-27T12:47:23;10.37;;;9.47;;
37937;SDS011;23763;48.130;11.602;2022-11-27T12:50:17;9.53;;;8.73;;
37937;SDS011;23763;48.130;11.602;2022-11-27T12:53:22;9.77;;;8.97;;
37937;SDS011;23763;48.130;11.602;2022-11-27T12:55:40;11.07;;;9.97;;
37937;SDS011;23763;48.130;11.602;2022-11-27T12:58:24;10.07;;;9.17;;
37937;SDS011;23763;48.130;11.602;2022-11-27T13:00:58;9.43;;;8.63;;
37937;SDS011;23763;48.130;11.602;2022-11-27T13:03:32;10.03;;;9.23;;
37937;SDS011;23763;48.130;11.602;2022-11-27T13:06:15;10.23;;;9.33;;
37937;SDS011;23763;48.130;11.602;2022-11-27T13:08:45;12.50;;;10.23;;
37937;SDS011;23763;48.130;11.602;2022-11-27T13:11:19;11.23;;;10.20;;
37937;SDS011;23763;48.130;11.602;2022-11-27T13:14:11;10.60;;;9.50;;
37937;SDS011;23763;48.130;11.602;2022-11-27T13:16:39;11.97;;;10.87;;
37937;SDS011;23763;48.130;11.602;2022-11-27T13:21:56;10.87;;;9.77;;
37937;SDS011;23763;48.130;11.602;2022-11-27T13:24:25;13.70;;;12.30;;
37937;SDS011;23763;48.130;11.602;2022-11-27T13:26:56;11.77;;;10.67;;
37937;SDS011;23763;48.130;11.602;2022-11-27T13:29:38;11.57;;;10.37;;
37937;SDS011;23763;48.130;11.602;2022-11-27T13:32:15;10.40;;;9.50;;
37937;SDS011;23763;48.130;11.602;2022-11-27T13:34:48;10.73;;;9.73;;
37937;SDS011;23763;48.130;11.602;2022-11-27T13:40:05;11.17;;;10.07;;
37937;SDS011;23763;48.130;11.602;2022-11-27T13:42:41;10.90;;;9.97;;
37937;SDS011;23763;48.130;11.602;2022-11-27T13:45:16;10.87;;;9.97;;
37937;SDS011;23763;48.130;11.602;2022-11-27T13:47:45;11.27;;;10.27;;
37937;SDS011;23763;48.130;11.602;2022-11-27T13:50:13;10.67;;;9.60;;
37937;SDS011;23763;48.130;11.602;2022-11-27T13:53:01;10.97;;;10.03;;
37937;SDS011;23763;48.130;11.602;2022-11-27T13:57:56;11.73;;;10.63;;
37937;SDS011;23763;48.130;11.602;2022-11-27T14:00:45;11.33;;;10.33;;
37937;SDS011;23763;48.130;11.602;2022-11-27T14:03:22;11.40;;;10.23;;
37937;SDS011;23763;48.130;11.602;2022-11-27T14:05:49;11.13;;;10.00;;
37937;SDS011;23763;48.130;11.602;2022-11-27T14:11:02;10.63;;;9.73;;
37937;SDS011;23763;48.130;11.602;2022-11-27T14:13:53;11.90;;;10.73;;
37937;SDS011;23763;48.130;11.602;2022-11-27T14:16:28;12.50;;;11.30;;
37937;SDS011;23763;48.130;11.602;2022-11-27T14:18:59;11.40;;;10.30;;
37937;SDS011;23763;48.130;11.602;2022-11-27T14:21:33;13.00;;;11.70;;
37937;SDS011;23763;48.130;11.602;2022-11-27T14:24:21;17.83;;;12.83;;
37937;SDS011;23763;48.130;11.602;2022-11-27T14:26:49;12.93;;;11.67;;
37937;SDS011;23763;48.130;11.602;2022-11-27T14:29:15;14.57;;;11.80;;
37937;SDS011;23763;48.130;11.602;2022-11-27T14:31:54;13.20;;;11.97;;
37937;SDS011;23763;48.130;11.602;2022-11-27T14:34:28;11.53;;;10.53;;
37937;SDS011;23763;48.130;11.602;2022-11-27T14:36:55;12.20;;;10.43;;
37937;SDS011;23763;48.130;11.602;2022-11-27T14:39:23;13.10;;;10.73;;
37937;SDS011;23763;48.130;11.602;2022-11-27T14:42:01;12.57;;;10.80;;
37937;SDS011;23763;48.130;11.602;2022-11-27T14:44:28;11.87;;;10.57;;
37937;SDS011;23763;48.130;11.602;2022-11-27T14:46:54;13.80;;;12.43;;
37937;SDS011;23763;48.130;11.602;2022-11-27T14:49:24;13.47;;;12.10;;
37937;SDS011;23763;48.130;11.602;2022-11-27T14:51:51;12.60;;;11.40;;
37937;SDS011;23763;48.130;11.602;2022-11-27T14:56:51;12.87;;;11.33;;
37937;SDS011;23763;48.130;11.602;2022-11-27T14:59:19;13.80;;;11.87;;
37937;SDS011;23763;48.130;11.602;2022-11-27T15:04:38;12.40;;;11.23;;
37937;SDS011;23763;48.130;11.602;2022-11-27T15:10:02;12.30;;;11.00;;
37937;SDS011;23763;48.130;11.602;2022-11-27T15:12:44;12.63;;;10.97;;
37937;SDS011;23763;48.130;11.602;2022-11-27T15:15:16;12.53;;;11.33;;
37937;SDS011;23763;48.130;11.602;2022-11-27T15:17:47;13.37;;;12.17;;
37937;SDS011;23763;48.130;11.602;2022-11-27T15:20:24;12.33;;;11.13;;
37937;SDS011;23763;48.130;11.602;2022-11-27T15:22:56;13.63;;;12.43;;
37937;SDS011;23763;48.130;11.602;2022-11-27T15:25:28;12.23;;;11.10;;
37937;SDS011;23763;48.130;11.602;2022-11-27T15:28:00;13.23;;;11.93;;
37937;SDS011;23763;48.130;11.602;2022-11-27T15:30:26;12.07;;;10.87;;
37937;SDS011;23763;48.130;11.602;2022-11-27T15:32:52;11.37;;;10.37;;
37937;SDS011;23763;48.130;11.602;2022-11-27T15:35:23;16.13;;;13.17;;
37937;SDS011;23763;48.130;11.602;2022-11-27T15:37:57;19.73;;;14.93;;
37937;SDS011;23763;48.130;11.602;2022-11-27T15:40:33;24.17;;;16.27;;
37937;SDS011;23763;48.130;11.602;2022-11-27T15:43:01;45.30;;;24.53;;
37937;SDS011;23763;48.130;11.602;2022-11-27T15:45:30;24.23;;;16.80;;
37937;SDS011;23763;48.130;11.602;2022-11-27T15:48:00;45.37;;;25.10;;
37937;SDS011;23763;48.130;11.602;2022-11-27T15:50:26;28.43;;;19.63;;
37937;SDS011;23763;48.130;11.602;2022-11-27T15:52:53;43.17;;;23.60;;
37937;SDS011;23763;48.130;11.602;2022-11-27T15:55:19;15.63;;;13.00;;
37937;SDS011;23763;48.130;11.602;2022-11-27T15:57:51;12.17;;;10.80;;
37937;SDS011;23763;48.130;11.602;2022-11-27T16:00:16;11.40;;;10.40;;
37937;SDS011;23763;48.130;11.602;2022-11-27T16:02:43;15.33;;;13.53;;
37937;SDS011;23763;48.130;11.602;2022-11-27T16:07:41;35.07;;;24.97;;
37937;SDS011;23763;48.130;11.602;2022-11-27T16:10:07;36.30;;;25.20;;
37937;SDS011;23763;48.130;11.602;2022-11-27T16:12:33;19.13;;;15.13;;
37937;SDS011;23763;48.130;11.602;2022-11-27T16:15:25;16.30;;;14.20;;
37937;SDS011;23763;48.130;11.602;2022-11-27T16:17:54;15.33;;;13.73;;
37937;SDS011;23763;48.130;11.602;2022-11-27T16:20:20;15.97;;;14.30;;
37937;SDS011;23763;48.130;11.602;2022-11-27T16:22:45;13.40;;;12.00;;
37937;SDS011;23763;48.130;11.602;2022-11-27T16:25:11;12.00;;;10.80;;
37937;SDS011;23763;48.130;11.602;2022-11-27T16:27:36;13.13;;;10.60;;
37937;SDS011;23763;48.130;11.602;2022-11-27T16:30:02;29.07;;;21.43;;
37937;SDS011;23763;48.130;11.602;2022-11-27T16:32:28;15.10;;;13.03;;
37937;SDS011;23763;48.130;11.602;2022-11-27T16:34:56;16.10;;;14.50;;
37937;SDS011;23763;48.130;11.602;2022-11-27T16:37:22;15.23;;;13.03;;
37937;SDS011;23763;48.130;11.602;2022-11-27T16:39:48;17.43;;;15.67;;
37937;SDS011;23763;48.130;11.602;2022-11-27T16:42:13;12.40;;;11.13;;
37937;SDS011;23763;48.130;11.602;2022-11-27T16:44:39;15.80;;;14.13;;
37937;SDS011;23763;48.130;11.602;2022-11-27T16:47:06;16.90;;;14.37;;